createdAt,value
2018-09-05T00:00:57.661Z,0.00
2018-09-05T00:01:57.513Z,0.00
2018-09-05T00:02:57.510Z,0.00
2018-09-05T00:03:57.505Z,0.00
2018-09-05T00:04:57.534Z,0.00
2018-09-05T00:05:57.510Z,0.00
2018-09-05T00:06:57.509Z,0.00
2018-09-05T00:07:57.507Z,0.00
2018-09-05T00:08:57.506Z,0.00
2018-09-05T00:09:57.536Z,0.00
2018-09-05T00:10:57.502Z,0.00
2018-09-05T00:11:57.501Z,0.00
2018-09-05T00:12:57.504Z,0.00
2018-09-05T00:13:57.527Z,0.00
2018-09-05T00:14:57.499Z,0.00
2018-09-05T00:15:57.503Z,0.00
2018-09-05T00:16:57.500Z,0.00
2018-09-05T00:17:57.496Z,0.00
2018-09-05T00:18:57.525Z,0.00
2018-09-05T00:19:57.499Z,0.00
2018-09-05T00:20:57.497Z,0.00
2018-09-05T00:21:57.498Z,0.00
2018-09-05T00:22:57.521Z,0.00
2018-09-05T00:23:57.493Z,0.00
2018-09-05T00:24:57.522Z,0.00
2018-09-05T00:25:57.497Z,0.00
2018-09-05T00:26:57.489Z,0.00
2018-09-05T00:27:57.486Z,0.00
2018-09-05T00:28:57.491Z,0.00
2018-09-05T00:29:57.539Z,0.00
2018-09-05T00:30:57.486Z,0.00
2018-09-05T00:31:57.483Z,0.00
2018-09-05T00:32:57.486Z,0.00
2018-09-05T00:33:57.519Z,0.00
2018-09-05T00:34:57.483Z,0.00
2018-09-05T00:35:57.482Z,0.00
2018-09-05T00:36:57.484Z,0.00
2018-09-05T00:37:57.483Z,0.00
2018-09-05T00:38:57.509Z,0.00
2018-09-05T00:39:57.504Z,0.00
2018-09-05T00:40:57.480Z,0.00
2018-09-05T00:41:57.484Z,0.00
2018-09-05T00:42:57.476Z,0.00
2018-09-05T00:43:57.477Z,0.00
2018-09-05T00:44:57.504Z,0.00
2018-09-05T00:45:57.477Z,0.00
2018-09-05T00:46:57.473Z,0.00
2018-09-05T00:47:57.473Z,0.00
2018-09-05T00:48:57.473Z,0.00
2018-09-05T00:49:57.497Z,0.00
2018-09-05T00:50:57.476Z,0.00
2018-09-05T00:51:57.470Z,0.00
2018-09-05T00:52:57.467Z,0.00
2018-09-05T00:53:57.470Z,0.00
2018-09-05T00:54:57.494Z,0.00
2018-09-05T00:55:57.468Z,0.00
2018-09-05T00:56:57.466Z,0.00
2018-09-05T00:57:57.467Z,0.00
2018-09-05T00:58:57.462Z,0.00
2018-09-05T00:59:57.487Z,0.00
2018-09-05T01:00:57.463Z,0.00
2018-09-05T01:01:57.460Z,0.00
2018-09-05T01:02:57.457Z,0.00
2018-09-05T01:03:57.463Z,0.00
2018-09-05T01:04:57.493Z,0.00
2018-09-05T01:05:57.458Z,0.00
2018-09-05T01:06:57.456Z,0.00
2018-09-05T01:07:57.459Z,0.00
2018-09-05T01:08:57.480Z,0.00
2018-09-05T01:09:57.450Z,0.00
2018-09-05T01:10:57.455Z,0.00
2018-09-05T01:11:57.449Z,0.00
2018-09-05T01:12:57.446Z,0.00
2018-09-05T01:13:57.477Z,0.00
2018-09-05T01:14:57.478Z,0.00
2018-09-05T01:15:57.446Z,0.00
2018-09-05T01:16:57.444Z,0.00
2018-09-05T01:17:57.450Z,0.00
2018-09-05T01:18:57.442Z,0.00
2018-09-05T01:19:57.471Z,0.00
2018-09-05T01:20:57.443Z,0.00
2018-09-05T01:21:57.451Z,0.00
2018-09-05T01:22:57.446Z,0.00
2018-09-05T01:23:57.440Z,0.00
2018-09-05T01:24:57.467Z,0.00
2018-09-05T01:25:57.436Z,0.00
2018-09-05T01:26:57.438Z,0.00
2018-09-05T01:27:57.436Z,0.00
2018-09-05T01:28:57.431Z,0.00
2018-09-05T01:29:57.464Z,0.00
2018-09-05T01:30:57.435Z,0.00
2018-09-05T01:31:57.429Z,0.00
2018-09-05T01:32:57.428Z,0.00
2018-09-05T01:33:57.428Z,0.00
2018-09-05T01:34:57.456Z,0.00
2018-09-05T01:35:57.425Z,0.00
2018-09-05T01:36:57.425Z,0.00
2018-09-05T01:37:57.425Z,0.00
2018-09-05T01:38:57.427Z,0.00
2018-09-05T01:39:57.454Z,0.00
2018-09-05T01:40:59.083Z,0.00
2018-09-05T01:41:57.423Z,0.00
2018-09-05T01:42:57.417Z,0.00
2018-09-05T01:43:57.444Z,0.00
2018-09-05T01:44:57.446Z,0.00
2018-09-05T01:45:57.416Z,0.00
2018-09-05T01:46:57.413Z,0.00
2018-09-05T01:47:57.410Z,0.00
2018-09-05T01:48:57.411Z,0.00
2018-09-05T01:49:57.435Z,0.00
2018-09-05T01:50:57.407Z,0.00
2018-09-05T01:51:57.408Z,0.00
2018-09-05T01:52:57.408Z,0.00
2018-09-05T01:53:57.403Z,0.00
2018-09-05T01:54:57.437Z,0.00
2018-09-05T01:55:57.404Z,0.00
2018-09-05T01:56:57.401Z,0.00
2018-09-05T01:57:57.407Z,0.00
2018-09-05T01:58:57.401Z,0.00
2018-09-05T01:59:57.430Z,0.00
2018-09-05T02:00:57.398Z,0.00
2018-09-05T02:01:57.446Z,0.00
2018-09-05T02:02:57.398Z,0.00
2018-09-05T02:03:57.421Z,0.00
2018-09-05T02:04:57.394Z,0.00
2018-09-05T02:05:57.393Z,0.00
2018-09-05T02:06:57.394Z,0.00
2018-09-05T02:07:57.393Z,0.00
2018-09-05T02:08:57.421Z,0.00
2018-09-05T02:09:57.418Z,0.00
2018-09-05T02:10:57.375Z,0.00
2018-09-05T02:11:57.375Z,0.00
2018-09-05T02:12:57.376Z,0.00
2018-09-05T02:13:57.392Z,0.00
2018-09-05T02:14:57.400Z,0.00
2018-09-05T02:15:57.367Z,0.00
2018-09-05T02:16:57.368Z,0.00
2018-09-05T02:17:57.370Z,0.00
2018-09-05T02:18:57.396Z,0.00
2018-09-05T02:19:57.395Z,0.00
2018-09-05T02:20:57.372Z,0.00
2018-09-05T02:21:57.365Z,0.00
2018-09-05T02:22:57.364Z,0.00
2018-09-05T02:23:57.364Z,0.00
2018-09-05T02:24:57.386Z,0.00
2018-09-05T02:25:57.357Z,0.00
2018-09-05T02:26:57.357Z,0.00
2018-09-05T02:27:57.357Z,0.00
2018-09-05T02:28:57.353Z,0.00
2018-09-05T02:29:57.387Z,0.00
2018-09-05T02:30:57.356Z,0.00
2018-09-05T02:31:57.349Z,0.00
2018-09-05T02:32:57.353Z,0.00
2018-09-05T02:33:57.350Z,0.00
2018-09-05T02:34:57.380Z,0.00
2018-09-05T02:35:57.346Z,0.00
2018-09-05T02:36:57.350Z,0.00
2018-09-05T02:37:57.343Z,0.00
2018-09-05T02:38:57.371Z,0.00
2018-09-05T02:39:57.367Z,0.00
2018-09-05T02:40:57.339Z,0.00
2018-09-05T02:41:57.339Z,0.00
2018-09-05T02:42:57.336Z,0.00
2018-09-05T02:43:57.340Z,0.00
2018-09-05T02:44:57.360Z,0.00
2018-09-05T02:45:57.336Z,0.00
2018-09-05T02:46:57.333Z,0.00
2018-09-05T02:47:57.352Z,0.00
2018-09-05T02:48:57.325Z,0.00
2018-09-05T02:49:57.355Z,0.00
2018-09-05T02:50:57.328Z,0.00
2018-09-05T02:51:57.324Z,0.00
2018-09-05T02:52:57.325Z,0.00
2018-09-05T02:53:57.326Z,0.00
2018-09-05T02:54:57.349Z,0.00
2018-09-05T02:55:57.321Z,0.00
2018-09-05T02:56:57.317Z,0.00
2018-09-05T02:57:57.316Z,0.00
2018-09-05T02:58:57.322Z,0.00
2018-09-05T02:59:57.347Z,0.00
2018-09-05T03:00:57.485Z,0.00
2018-09-05T03:01:57.311Z,0.00
2018-09-05T03:02:57.310Z,0.00
2018-09-05T03:03:57.311Z,0.00
2018-09-05T03:04:57.334Z,0.00
2018-09-05T03:05:57.307Z,0.00
2018-09-05T03:06:57.308Z,0.00
2018-09-05T03:07:57.311Z,0.00
2018-09-05T03:08:57.308Z,0.00
2018-09-05T03:09:57.332Z,0.00
2018-09-05T03:10:57.306Z,0.00
2018-09-05T03:11:57.296Z,0.00
2018-09-05T03:12:57.434Z,0.00
2018-09-05T03:13:57.297Z,0.00
2018-09-05T03:14:57.323Z,0.00
2018-09-05T03:15:57.294Z,0.00
2018-09-05T03:16:57.293Z,0.00
2018-09-05T03:17:57.293Z,0.00
2018-09-05T03:18:57.289Z,0.00
2018-09-05T03:19:57.320Z,0.00
2018-09-05T03:20:57.313Z,0.00
2018-09-05T03:21:57.292Z,0.00
2018-09-05T03:22:57.287Z,0.00
2018-09-05T03:23:57.279Z,0.00
2018-09-05T03:24:57.277Z,0.00
2018-09-05T03:25:57.308Z,0.00
2018-09-05T03:26:57.289Z,0.00
2018-09-05T03:27:57.279Z,0.00
2018-09-05T03:28:57.282Z,0.00
2018-09-05T03:29:57.301Z,0.00
2018-09-05T03:30:57.277Z,0.00
2018-09-05T03:31:57.272Z,0.00
2018-09-05T03:32:57.285Z,0.00
2018-09-05T03:33:57.271Z,0.00
2018-09-05T03:34:57.299Z,0.00
2018-09-05T03:35:57.269Z,0.00
2018-09-05T03:36:57.268Z,0.00
2018-09-05T03:37:57.264Z,0.00
2018-09-05T03:38:57.266Z,0.00
2018-09-05T03:39:57.291Z,0.00
2018-09-05T03:40:57.464Z,0.00
2018-09-05T03:41:57.261Z,0.00
2018-09-05T03:42:57.274Z,0.00
2018-09-05T03:43:57.299Z,0.00
2018-09-05T03:44:57.281Z,0.00
2018-09-05T03:45:57.253Z,0.00
2018-09-05T03:46:57.253Z,0.00
2018-09-05T03:47:57.249Z,0.00
2018-09-05T03:48:57.251Z,0.00
2018-09-05T03:49:57.271Z,0.00
2018-09-05T03:50:57.250Z,0.00
2018-09-05T03:51:57.247Z,0.00
2018-09-05T03:52:57.242Z,0.00
2018-09-05T03:53:57.242Z,0.00
2018-09-05T03:54:57.270Z,0.00
2018-09-05T03:55:57.265Z,0.00
2018-09-05T03:56:57.238Z,0.00
2018-09-05T03:57:57.246Z,0.00
2018-09-05T03:58:57.235Z,4.00
2018-09-05T03:59:57.259Z,4.00
2018-09-05T04:00:57.232Z,4.00
2018-09-05T04:01:57.231Z,4.00
2018-09-05T04:02:57.231Z,4.00
2018-09-05T04:03:57.228Z,4.00
2018-09-05T04:04:57.264Z,8.00
2018-09-05T04:05:57.256Z,8.00
2018-09-05T04:06:57.227Z,8.00
2018-09-05T04:07:57.224Z,8.00
2018-09-05T04:08:57.223Z,12.00
2018-09-05T04:09:57.254Z,16.00
2018-09-05T04:10:57.220Z,20.00
2018-09-05T04:11:57.221Z,24.00
2018-09-05T04:12:57.216Z,24.00
2018-09-05T04:13:57.217Z,32.00
2018-09-05T04:14:57.347Z,40.00
2018-09-05T04:15:57.276Z,44.00
2018-09-05T04:16:57.210Z,52.00
2018-09-05T04:17:57.212Z,60.00
2018-09-05T04:18:57.209Z,68.00
2018-09-05T04:19:57.203Z,80.00
2018-09-05T04:20:57.237Z,92.00
2018-09-05T04:21:57.309Z,108.00
2018-09-05T04:22:57.198Z,120.00
2018-09-05T04:23:57.205Z,136.00
2018-09-05T04:24:57.276Z,156.00
2018-09-05T04:25:57.204Z,176.00
2018-09-05T04:26:57.199Z,196.00
2018-09-05T04:27:57.195Z,220.00
2018-09-05T04:28:57.195Z,244.00
2018-09-05T04:29:57.301Z,272.00
2018-09-05T04:30:57.195Z,296.00
2018-09-05T04:31:57.194Z,328.00
2018-09-05T04:32:57.192Z,356.00
2018-09-05T04:33:57.190Z,384.00
2018-09-05T04:34:57.214Z,416.00
2018-09-05T04:35:57.181Z,452.00
2018-09-05T04:36:57.186Z,488.00
2018-09-05T04:37:57.184Z,532.00
2018-09-05T04:38:57.184Z,580.00
2018-09-05T04:39:57.205Z,628.00
2018-09-05T04:40:57.185Z,680.00
2018-09-05T04:41:57.184Z,720.00
2018-09-05T04:42:57.181Z,764.00
2018-09-05T04:43:57.178Z,820.00
2018-09-05T04:44:57.209Z,876.00
2018-09-05T04:45:57.169Z,932.00
2018-09-05T04:46:57.174Z,1012.00
2018-09-05T04:47:57.170Z,1084.00
2018-09-05T04:48:57.171Z,1164.00
2018-09-05T04:49:57.197Z,1232.00
2018-09-05T04:50:57.166Z,1296.00
2018-09-05T04:51:57.195Z,1344.00
2018-09-05T04:52:57.164Z,1424.00
2018-09-05T04:53:57.165Z,1524.00
2018-09-05T04:54:57.158Z,1628.00
2018-09-05T04:55:57.183Z,1732.00
2018-09-05T04:56:57.160Z,1832.00
2018-09-05T04:57:57.160Z,1912.00
2018-09-05T04:58:57.160Z,1988.00
2018-09-05T04:59:57.183Z,2072.00
2018-09-05T05:00:57.156Z,2128.00
2018-09-05T05:01:57.179Z,2212.00
2018-09-05T05:02:57.151Z,2316.00
2018-09-05T05:03:57.937Z,2376.00
2018-09-05T05:04:57.154Z,2340.00
2018-09-05T05:05:57.297Z,2312.00
2018-09-05T05:06:57.149Z,2372.00
2018-09-05T05:07:57.149Z,2460.00
2018-09-05T05:08:57.143Z,2568.00
2018-09-05T05:09:57.147Z,2684.00
2018-09-05T05:10:57.175Z,2776.00
2018-09-05T05:11:57.142Z,2840.00
2018-09-05T05:12:57.146Z,2884.00
2018-09-05T05:13:57.168Z,2976.00
2018-09-05T05:14:57.167Z,3092.00
2018-09-05T05:15:57.164Z,3184.00
2018-09-05T05:16:57.140Z,3252.00
2018-09-05T05:17:57.145Z,3320.00
2018-09-05T05:18:57.147Z,3424.00
2018-09-05T05:19:57.138Z,3556.00
2018-09-05T05:20:57.171Z,3684.00
2018-09-05T05:21:57.138Z,3744.00
2018-09-05T05:22:57.134Z,3816.00
2018-09-05T05:23:57.139Z,3932.00
2018-09-05T05:24:57.129Z,4052.00
2018-09-05T05:25:57.163Z,4164.00
2018-09-05T05:26:57.132Z,4252.00
2018-09-05T05:27:57.134Z,4276.00
2018-09-05T05:28:57.129Z,4272.00
2018-09-05T05:29:57.125Z,4196.00
2018-09-05T05:30:57.157Z,4084.00
2018-09-05T05:31:57.132Z,4008.00
2018-09-05T05:32:57.233Z,4008.00
2018-09-05T05:33:57.134Z,4064.00
2018-09-05T05:34:57.128Z,4124.00
2018-09-05T05:35:57.153Z,4228.00
2018-09-05T05:36:57.161Z,4368.00
2018-09-05T05:37:57.126Z,4476.00
2018-09-05T05:38:57.129Z,4584.00
2018-09-05T05:39:57.122Z,4732.00
2018-09-05T05:40:57.126Z,4832.00
2018-09-05T05:41:57.152Z,4868.00
2018-09-05T05:42:57.124Z,4900.00
2018-09-05T05:43:57.127Z,5004.00
2018-09-05T05:44:57.154Z,5192.00
2018-09-05T05:45:57.221Z,5412.00
2018-09-05T05:46:57.123Z,5632.00
2018-09-05T05:47:57.123Z,5852.00
2018-09-05T05:48:57.120Z,6104.00
2018-09-05T05:49:57.119Z,6268.00
2018-09-05T05:50:57.479Z,6520.00
2018-09-05T05:51:57.115Z,6752.00
2018-09-05T05:52:57.119Z,6880.00
2018-09-05T05:53:57.120Z,6900.00
2018-09-05T05:54:57.124Z,7000.00
2018-09-05T05:55:57.144Z,7100.00
2018-09-05T05:56:57.119Z,7224.00
2018-09-05T05:57:57.150Z,7316.00
2018-09-05T05:58:57.120Z,7392.00
2018-09-05T05:59:57.121Z,7404.00
2018-09-05T06:00:57.180Z,7396.00
2018-09-05T06:01:57.144Z,7500.00
2018-09-05T06:02:57.121Z,7664.00
2018-09-05T06:03:57.128Z,7856.00
2018-09-05T06:04:57.123Z,8092.00
2018-09-05T06:05:57.161Z,8276.00
2018-09-05T06:06:57.121Z,8368.00
2018-09-05T06:07:57.153Z,8408.00
2018-09-05T06:08:57.121Z,8516.00
2018-09-05T06:09:57.127Z,8608.00
2018-09-05T06:10:57.169Z,8732.00
2018-09-05T06:11:57.196Z,8788.00
2018-09-05T06:12:57.122Z,8836.00
2018-09-05T06:13:57.127Z,8900.00
2018-09-05T06:14:57.127Z,8924.00
2018-09-05T06:15:57.128Z,8960.00
2018-09-05T06:16:57.160Z,8996.00
2018-09-05T06:17:57.141Z,9064.00
2018-09-05T06:18:57.130Z,9152.00
2018-09-05T06:19:57.130Z,9256.00
2018-09-05T06:20:57.172Z,9308.00
2018-09-05T06:21:57.164Z,9300.00
2018-09-05T06:22:57.140Z,9280.00
2018-09-05T06:23:57.156Z,9276.00
2018-09-05T06:24:57.140Z,9300.00
2018-09-05T06:25:57.150Z,9324.00
2018-09-05T06:26:57.169Z,9356.00
2018-09-05T06:27:57.312Z,9420.00
2018-09-05T06:28:57.147Z,9492.00
2018-09-05T06:29:57.155Z,9564.00
2018-09-05T06:30:57.214Z,9680.00
2018-09-05T06:31:57.187Z,9776.00
2018-09-05T06:32:57.161Z,9888.00
2018-09-05T06:33:57.169Z,9948.00
2018-09-05T06:34:57.166Z,9988.00
2018-09-05T06:35:57.272Z,10060.00
2018-09-05T06:36:57.167Z,10076.00
2018-09-05T06:37:57.225Z,10116.00
2018-09-05T06:38:57.271Z,10064.00
2018-09-05T06:39:57.195Z,10100.00
2018-09-05T06:40:57.238Z,10080.00
2018-09-05T06:41:57.484Z,10004.00
2018-09-05T06:42:57.190Z,9932.00
2018-09-05T06:44:57.278Z,9840.00
2018-09-05T06:45:58.389Z,9872.00
2018-09-05T06:46:58.971Z,9900.00
2018-09-05T06:48:04.321Z,9920.00
2018-09-05T06:48:57.271Z,9508.00
2018-09-05T06:49:58.890Z,9500.00
2018-09-05T06:51:00.332Z,9804.00
2018-09-05T06:51:59.848Z,9768.00
2018-09-05T06:52:59.859Z,9500.00
2018-09-05T06:53:57.821Z,9512.00
2018-09-05T06:54:59.968Z,10596.00
2018-09-05T06:56:03.822Z,10160.00
2018-09-05T06:56:58.531Z,9864.00
2018-09-05T06:58:02.864Z,10272.00
2018-09-05T06:58:57.255Z,10260.00
2018-09-05T06:59:57.255Z,10100.00
2018-09-05T07:00:57.285Z,10260.00
2018-09-05T07:02:02.119Z,10660.00
2018-09-05T07:02:57.408Z,11500.00
2018-09-05T07:03:59.186Z,11656.00
2018-09-05T07:04:57.592Z,10628.00
2018-09-05T07:05:57.476Z,10596.00
2018-09-05T07:06:57.518Z,10652.00
2018-09-05T07:07:58.161Z,10860.00
2018-09-05T07:08:57.292Z,11480.00
2018-09-05T07:09:57.358Z,12764.00
2018-09-05T07:10:57.344Z,12780.00
2018-09-05T07:11:57.305Z,12960.00
2018-09-05T07:12:57.331Z,13180.00
2018-09-05T07:13:57.310Z,13276.00
2018-09-05T07:14:57.323Z,13348.00
2018-09-05T07:15:57.320Z,13456.00
2018-09-05T07:16:57.351Z,13556.00
2018-09-05T07:17:57.334Z,13652.00
2018-09-05T07:18:57.336Z,13776.00
2018-09-05T07:19:57.335Z,13848.00
2018-09-05T07:21:05.678Z,13956.00
2018-09-05T07:21:57.410Z,14056.00
2018-09-05T07:22:57.353Z,14104.00
2018-09-05T07:23:57.382Z,14124.00
2018-09-05T07:24:57.394Z,14184.00
2018-09-05T07:25:57.364Z,14248.00
2018-09-05T07:26:57.411Z,14336.00
2018-09-05T07:27:57.375Z,14396.00
2018-09-05T07:28:57.382Z,14460.00
2018-09-05T07:29:57.385Z,14672.00
2018-09-05T07:30:57.495Z,14792.00
2018-09-05T07:31:57.402Z,15000.00
2018-09-05T07:32:59.327Z,15120.00
2018-09-05T07:33:57.447Z,15316.00
2018-09-05T07:34:57.417Z,15552.00
2018-09-05T07:35:57.460Z,15692.00
2018-09-05T07:36:57.561Z,15892.00
2018-09-05T07:37:57.444Z,16096.00
2018-09-05T07:38:57.450Z,16260.00
2018-09-05T07:39:57.453Z,16500.00
2018-09-05T07:40:57.458Z,16672.00
2018-09-05T07:41:57.512Z,16904.00
2018-09-05T07:42:57.476Z,17080.00
2018-09-05T07:43:57.485Z,17292.00
2018-09-05T07:44:57.493Z,17572.00
2018-09-05T07:45:57.500Z,17932.00
2018-09-05T07:46:57.554Z,18464.00
2018-09-05T07:47:57.513Z,18624.00
2018-09-05T07:48:57.531Z,18752.00
2018-09-05T07:49:58.364Z,18912.00
2018-09-05T07:50:57.762Z,18976.00
2018-09-05T07:51:57.588Z,19104.00
2018-09-05T07:52:57.567Z,19072.00
2018-09-05T07:53:57.574Z,19104.00
2018-09-05T07:54:57.582Z,18352.00
2018-09-05T07:55:57.629Z,18944.00
2018-09-05T07:56:57.597Z,19136.00
2018-09-05T07:57:57.607Z,19136.00
2018-09-05T07:58:57.654Z,19232.00
2018-09-05T07:59:57.626Z,19520.00
2018-09-05T08:00:57.635Z,19744.00
2018-09-05T08:01:57.679Z,19904.00
2018-09-05T08:02:57.678Z,19936.00
2018-09-05T08:03:57.659Z,20000.00
2018-09-05T08:04:57.676Z,20096.00
2018-09-05T08:05:57.693Z,20480.00
2018-09-05T08:06:57.749Z,20736.00
2018-09-05T08:07:57.703Z,21024.00
2018-09-05T08:08:57.719Z,21216.00
2018-09-05T08:09:57.730Z,21280.00
2018-09-05T08:10:57.786Z,20960.00
2018-09-05T08:11:57.752Z,20896.00
2018-09-05T08:12:57.764Z,20544.00
2018-09-05T08:13:57.776Z,20800.00
2018-09-05T08:14:57.800Z,21088.00
2018-09-05T08:15:57.848Z,21216.00
2018-09-05T08:16:57.806Z,21408.00
2018-09-05T08:17:57.837Z,21472.00
2018-09-05T08:18:57.867Z,21312.00
2018-09-05T08:19:57.846Z,19968.00
2018-09-05T08:20:57.854Z,19936.00
2018-09-05T08:21:57.908Z,20832.00
2018-09-05T08:22:57.881Z,20608.00
2018-09-05T08:23:57.891Z,20832.00
2018-09-05T08:24:57.896Z,20992.00
2018-09-05T08:25:57.935Z,21088.00
2018-09-05T08:26:57.923Z,21504.00
2018-09-05T08:27:57.939Z,21600.00
2018-09-05T08:28:58.015Z,21824.00
2018-09-05T08:29:57.968Z,21728.00
2018-09-05T08:30:58.009Z,22016.00
2018-09-05T08:31:57.977Z,21632.00
2018-09-05T08:32:57.988Z,22848.00
2018-09-05T08:33:59.004Z,19368.00
2018-09-05T08:34:59.043Z,22048.00
2018-09-05T08:35:58.316Z,19520.00
2018-09-05T08:36:58.251Z,24832.00
2018-09-05T08:37:58.095Z,24736.00
2018-09-05T08:38:58.119Z,24928.00
2018-09-05T08:39:58.129Z,24160.00
2018-09-05T08:40:58.263Z,24736.00
2018-09-05T08:41:58.420Z,24416.00
2018-09-05T08:42:58.147Z,22048.00
2018-09-05T08:43:58.658Z,22112.00
2018-09-05T08:44:58.514Z,22496.00
2018-09-05T08:45:58.241Z,22720.00
2018-09-05T08:46:58.280Z,23328.00
2018-09-05T08:47:58.293Z,22560.00
2018-09-05T08:48:58.353Z,22592.00
2018-09-05T08:49:58.522Z,21792.00
2018-09-05T08:50:58.303Z,22272.00
2018-09-05T08:51:59.354Z,23008.00
2018-09-05T08:52:58.263Z,23872.00
2018-09-05T08:53:58.266Z,22944.00
2018-09-05T08:54:58.315Z,22464.00
2018-09-05T08:55:58.326Z,24416.00
2018-09-05T08:56:58.316Z,20128.00
2018-09-05T08:57:58.317Z,25120.00
2018-09-05T08:58:58.321Z,24896.00
2018-09-05T08:59:58.373Z,25376.00
2018-09-05T09:00:59.136Z,24032.00
2018-09-05T09:01:58.405Z,24032.00
2018-09-05T09:02:58.413Z,22496.00
2018-09-05T09:03:59.890Z,22784.00
2018-09-05T09:04:58.463Z,21376.00
2018-09-05T09:05:58.455Z,24256.00
2018-09-05T09:06:58.432Z,24512.00
2018-09-05T09:07:58.724Z,24608.00
2018-09-05T09:08:58.481Z,24480.00
2018-09-05T09:09:58.475Z,24480.00
2018-09-05T09:10:58.522Z,24800.00
2018-09-05T09:11:58.518Z,25248.00
2018-09-05T09:12:58.529Z,25504.00
2018-09-05T09:13:58.528Z,25536.00
2018-09-05T09:14:58.546Z,23776.00
2018-09-05T09:15:58.614Z,26368.00
2018-09-05T09:16:58.585Z,28736.00
2018-09-05T09:17:59.424Z,27968.00
2018-09-05T09:18:58.611Z,27552.00
2018-09-05T09:19:58.622Z,27680.00
2018-09-05T09:20:58.684Z,27840.00
2018-09-05T09:21:58.654Z,27392.00
2018-09-05T09:22:58.789Z,27424.00
2018-09-05T09:23:58.682Z,27584.00
2018-09-05T09:24:58.702Z,27424.00
2018-09-05T09:25:58.769Z,27168.00
2018-09-05T09:26:58.738Z,26976.00
2018-09-05T09:27:58.806Z,26976.00
2018-09-05T09:28:59.870Z,27168.00
2018-09-05T09:29:58.794Z,27968.00
2018-09-05T09:30:58.844Z,28672.00
2018-09-05T09:31:58.814Z,28896.00
2018-09-05T09:32:58.834Z,29120.00
2018-09-05T09:33:58.852Z,29760.00
2018-09-05T09:34:59.530Z,30624.00
2018-09-05T09:35:58.924Z,31520.00
2018-09-05T09:36:58.970Z,32544.00
2018-09-05T09:37:58.917Z,34496.00
2018-09-05T09:38:58.930Z,36000.00
2018-09-05T09:40:01.874Z,36256.00
2018-09-05T09:40:59.003Z,36608.00
2018-09-05T09:41:58.980Z,36096.00
2018-09-05T09:42:59.003Z,34752.00
2018-09-05T09:43:59.016Z,34624.00
2018-09-05T09:44:59.067Z,35328.00
2018-09-05T09:46:00.422Z,36416.00
2018-09-05T09:46:59.057Z,37536.00
2018-09-05T09:47:59.076Z,37920.00
2018-09-05T09:48:59.094Z,38720.00
2018-09-05T09:49:59.153Z,39136.00
2018-09-05T09:51:00.019Z,39360.00
2018-09-05T09:51:59.176Z,39552.00
2018-09-05T09:52:59.165Z,40192.00
2018-09-05T09:53:59.188Z,39808.00
2018-09-05T09:54:59.236Z,39648.00
2018-09-05T09:55:59.251Z,39296.00
2018-09-05T09:57:01.069Z,39648.00
2018-09-05T09:57:59.250Z,41184.00
2018-09-05T09:58:59.261Z,43296.00
2018-09-05T09:59:59.280Z,44736.00
2018-09-05T10:00:59.336Z,45216.00
2018-09-05T10:01:59.330Z,45760.00
2018-09-05T10:02:59.330Z,47232.00
2018-09-05T10:03:59.364Z,47328.00
2018-09-05T10:04:59.362Z,47328.00
2018-09-05T10:05:59.435Z,47456.00
2018-09-05T10:06:59.411Z,48320.00
2018-09-05T10:07:59.415Z,49792.00
2018-09-05T10:08:59.435Z,51520.00
2018-09-05T10:09:59.668Z,51072.00
2018-09-05T10:10:59.472Z,50688.00
2018-09-05T10:11:59.524Z,50368.00
2018-09-05T10:12:59.502Z,51552.00
2018-09-05T10:13:59.519Z,52384.00
2018-09-05T10:14:59.602Z,54304.00
2018-09-05T10:15:59.582Z,56192.00
2018-09-05T10:16:59.624Z,57952.00
2018-09-05T10:17:59.583Z,60672.00
2018-09-05T10:18:59.603Z,62368.00
2018-09-05T10:19:59.616Z,63232.00
2018-09-05T10:20:59.687Z,66144.00
2018-09-05T10:21:59.656Z,64832.00
2018-09-05T10:22:59.671Z,64640.00
2018-09-05T10:23:59.688Z,64640.00
2018-09-05T10:24:59.707Z,63904.00
2018-09-05T10:25:59.754Z,69088.00
2018-09-05T10:26:59.777Z,71008.00
2018-09-05T10:27:59.761Z,71936.00
2018-09-05T10:28:59.773Z,74848.00
2018-09-05T10:29:59.791Z,71488.00
2018-09-05T10:30:59.861Z,71744.00
2018-09-05T10:31:59.834Z,69312.00
2018-09-05T10:32:59.840Z,75744.00
2018-09-05T10:33:59.863Z,81344.00
2018-09-05T10:34:59.881Z,85568.00
2018-09-05T10:35:59.935Z,85408.00
2018-09-05T10:36:59.915Z,86144.00
2018-09-05T10:37:59.936Z,90560.00
2018-09-05T10:38:59.952Z,88544.00
2018-09-05T10:39:59.968Z,83392.00
2018-09-05T10:41:00.022Z,80864.00
2018-09-05T10:42:00.008Z,88448.00
2018-09-05T10:43:00.025Z,87904.00
2018-09-05T10:44:00.042Z,84416.00
2018-09-05T10:45:00.059Z,85088.00
2018-09-05T10:46:00.116Z,83104.00
2018-09-05T10:47:00.099Z,78912.00
2018-09-05T10:48:00.115Z,72224.00
2018-09-05T10:49:00.134Z,65568.00
2018-09-05T10:50:00.155Z,58176.00
2018-09-05T10:51:00.207Z,54368.00
2018-09-05T10:52:00.188Z,54944.00
2018-09-05T10:53:00.204Z,61920.00
2018-09-05T10:54:00.223Z,76192.00
2018-09-05T10:55:00.239Z,85312.00
2018-09-05T10:56:00.304Z,90048.00
2018-09-05T10:57:00.282Z,89664.00
2018-09-05T10:58:00.345Z,84800.00
2018-09-05T10:59:00.315Z,85984.00
2018-09-05T11:00:00.332Z,84192.00
2018-09-05T11:01:00.389Z,84352.00
2018-09-05T11:02:00.374Z,85248.00
2018-09-05T11:03:00.392Z,83840.00
2018-09-05T11:04:00.401Z,83936.00
2018-09-05T11:05:00.428Z,86176.00
2018-09-05T11:06:00.490Z,89120.00
2018-09-05T11:07:00.465Z,89504.00
2018-09-05T11:08:00.481Z,86368.00
2018-09-05T11:09:00.502Z,88608.00
2018-09-05T11:10:00.518Z,94624.00
2018-09-05T11:11:00.579Z,91968.00
2018-09-05T11:12:00.554Z,93056.00
2018-09-05T11:13:00.575Z,94624.00
2018-09-05T11:14:00.595Z,93984.00
2018-09-05T11:15:00.615Z,89696.00
2018-09-05T11:16:00.667Z,95424.00
2018-09-05T11:17:00.651Z,99968.00
2018-09-05T11:18:00.671Z,94400.00
2018-09-05T11:19:00.689Z,99104.00
2018-09-05T11:20:00.709Z,100672.00
2018-09-05T11:21:00.760Z,98816.00
2018-09-05T11:22:00.744Z,100320.00
2018-09-05T11:23:00.770Z,97504.00
2018-09-05T11:24:00.787Z,92352.00
2018-09-05T11:25:00.853Z,91840.00
2018-09-05T11:26:00.861Z,99776.00
2018-09-05T11:27:00.841Z,104064.00
2018-09-05T11:28:00.865Z,102624.00
2018-09-05T11:29:00.913Z,100800.00
2018-09-05T11:30:00.898Z,94112.00
2018-09-05T11:31:00.959Z,94528.00
2018-09-05T11:32:00.944Z,98240.00
2018-09-05T11:33:00.959Z,98176.00
2018-09-05T11:34:00.981Z,95392.00
2018-09-05T11:35:01.000Z,95904.00
2018-09-05T11:36:01.047Z,98048.00
2018-09-05T11:37:01.060Z,94368.00
2018-09-05T11:38:01.060Z,100544.00
2018-09-05T11:39:01.071Z,99040.00
2018-09-05T11:40:01.093Z,96928.00
2018-09-05T11:41:01.156Z,96640.00
2018-09-05T11:42:01.137Z,96096.00
2018-09-05T11:43:01.152Z,94208.00
2018-09-05T11:44:01.172Z,96192.00
2018-09-05T11:45:01.185Z,96480.00
2018-09-05T11:46:01.249Z,100032.00
2018-09-05T11:47:01.265Z,100032.00
2018-09-05T11:48:01.252Z,98656.00
2018-09-05T11:49:01.262Z,102368.00
2018-09-05T11:50:01.286Z,98880.00
2018-09-05T11:51:01.349Z,93024.00
2018-09-05T11:52:01.358Z,95264.00
2018-09-05T11:53:01.348Z,96672.00
2018-09-05T11:54:01.370Z,99776.00
2018-09-05T11:55:01.387Z,96800.00
2018-09-05T11:56:01.442Z,100256.00
2018-09-05T11:57:01.423Z,102592.00
2018-09-05T11:58:01.449Z,99456.00
2018-09-05T11:59:01.460Z,97600.00
2018-09-05T12:00:01.486Z,99456.00
2018-09-05T12:01:01.543Z,99232.00
2018-09-05T12:02:01.526Z,100928.00
2018-09-05T12:03:01.545Z,94208.00
2018-09-05T12:04:01.562Z,89760.00
2018-09-05T12:05:01.606Z,91456.00
2018-09-05T12:06:01.655Z,94784.00
2018-09-05T12:07:01.622Z,99232.00
2018-09-05T12:08:01.645Z,98464.00
2018-09-05T12:09:01.661Z,100512.00
2018-09-05T12:10:01.681Z,100448.00
2018-09-05T12:11:01.739Z,98944.00
2018-09-05T12:12:01.770Z,98848.00
2018-09-05T12:13:01.743Z,98752.00
2018-09-05T12:14:01.759Z,99104.00
2018-09-05T12:15:01.780Z,99616.00
2018-09-05T12:16:01.835Z,99680.00
2018-09-05T12:17:01.819Z,99808.00
2018-09-05T12:18:01.835Z,100128.00
2018-09-05T12:19:01.856Z,97248.00
2018-09-05T12:20:01.877Z,97920.00
2018-09-05T12:21:01.936Z,98976.00